createdAt,value
2018-01-15T00:01:33.079Z,101342.95
2018-01-15T00:04:00.473Z,101346.43
2018-01-15T00:06:27.862Z,101349.02
2018-01-15T00:08:55.270Z,101342.55
2018-01-15T00:11:22.672Z,101337.35
2018-01-15T00:13:50.073Z,101334.78
2018-01-15T00:16:17.481Z,101331.72
2018-01-15T00:18:44.878Z,101324.80
2018-01-15T00:21:12.280Z,101313.95
2018-01-15T00:23:39.762Z,101313.55
2018-01-15T00:26:07.149Z,101313.56
2018-01-15T00:28:34.561Z,101308.37
2018-01-15T00:31:01.980Z,101300.64
2018-01-15T00:33:29.387Z,101294.59
2018-01-15T00:35:56.801Z,101288.10
2018-01-15T00:38:24.214Z,101281.20
2018-01-15T00:40:51.614Z,101277.30
2018-01-15T00:43:19.127Z,101275.55
2018-01-15T00:45:46.518Z,101272.08
2018-01-15T00:48:13.938Z,101266.47
2018-01-15T00:50:41.339Z,101258.72
2018-01-15T00:53:08.741Z,101263.06
2018-01-15T00:55:36.148Z,101254.80
2018-01-15T00:58:03.564Z,101256.50
2018-01-15T01:00:30.958Z,101255.66
2018-01-15T01:02:58.368Z,101247.89
2018-01-15T01:05:25.769Z,101241.42
2018-01-15T01:07:53.186Z,101239.22
2018-01-15T01:10:20.591Z,101227.98
2018-01-15T01:12:47.985Z,101227.59
2018-01-15T01:15:15.384Z,101222.81
2018-01-15T01:17:42.793Z,101221.05
2018-01-15T01:20:10.195Z,101214.14
2018-01-15T01:22:37.597Z,101206.33
2018-01-15T01:25:05.008Z,101195.56
2018-01-15T01:27:32.410Z,101188.19
2018-01-15T01:29:59.815Z,101188.17
2018-01-15T01:32:27.243Z,101190.75
2018-01-15T01:34:54.651Z,101182.09
2018-01-15T01:37:22.155Z,101179.00
2018-01-15T01:39:49.558Z,101166.92
2018-01-15T01:42:16.954Z,101170.33
2018-01-15T01:44:44.359Z,101159.95
2018-01-15T01:47:11.763Z,101158.19
2018-01-15T01:49:39.193Z,101164.64
2018-01-15T01:52:06.927Z,101157.70
2018-01-15T01:54:34.363Z,101152.13
2018-01-15T01:57:02.297Z,101149.53
2018-01-15T01:59:29.789Z,101135.69
2018-01-15T02:01:57.179Z,101129.63
2018-01-15T02:04:24.586Z,101127.88
2018-01-15T02:06:52.010Z,101127.41
2018-01-15T02:09:19.503Z,101137.69
2018-01-15T02:11:46.921Z,101134.63
2018-01-15T02:14:14.328Z,101130.75
2018-01-15T02:16:41.798Z,101135.55
2018-01-15T02:19:09.204Z,101135.04
2018-01-15T02:21:36.606Z,101136.35
2018-01-15T02:24:04.023Z,101133.33
2018-01-15T02:26:31.506Z,101128.14
2018-01-15T02:28:58.942Z,101130.67
2018-01-15T02:31:26.334Z,101126.70
2018-01-15T02:33:53.765Z,101123.76
2018-01-15T02:36:21.164Z,101119.95
2018-01-15T02:38:48.575Z,101112.17
2018-01-15T02:41:16.009Z,101107.41
2018-01-15T02:43:43.403Z,101101.81
2018-01-15T02:46:10.790Z,101088.03
2018-01-15T02:48:38.208Z,101086.23
2018-01-15T02:51:05.650Z,101086.12
2018-01-15T02:53:33.107Z,101093.01
2018-01-15T02:56:00.514Z,101087.05
2018-01-15T02:58:27.929Z,101073.72
2018-01-15T03:00:55.330Z,101065.99
2018-01-15T03:03:22.737Z,101063.84
2018-01-15T03:05:50.200Z,101055.59
2018-01-15T03:08:17.553Z,101065.09
2018-01-15T03:10:44.953Z,101057.72
2018-01-15T03:13:12.378Z,101049.52
2018-01-15T03:15:39.779Z,101044.80
2018-01-15T03:18:07.183Z,101044.40
2018-01-15T03:20:34.579Z,101034.91
2018-01-15T03:23:01.988Z,101029.27
2018-01-15T03:25:29.386Z,101028.36
2018-01-15T03:27:56.791Z,101018.02
2018-01-15T03:30:24.212Z,101012.47
2018-01-15T03:32:51.614Z,101008.12
2018-01-15T03:35:19.022Z,101007.25
2018-01-15T03:37:46.474Z,100998.53
2018-01-15T03:40:13.878Z,100998.84
2018-01-15T03:42:41.324Z,100997.97
2018-01-15T03:45:08.737Z,100992.52
2018-01-15T03:47:36.239Z,100983.91
2018-01-15T03:50:03.634Z,100977.01
2018-01-15T03:52:31.031Z,100970.09
2018-01-15T03:54:58.459Z,100958.83
2018-01-15T03:57:26.871Z,100955.86
2018-01-15T03:59:54.266Z,100952.34
2018-01-15T04:02:21.674Z,100950.11
2018-01-15T04:04:49.078Z,100949.65
2018-01-15T04:07:16.482Z,100944.50
2018-01-15T04:09:43.884Z,100939.73
2018-01-15T04:12:11.329Z,100931.44
2018-01-15T04:14:38.734Z,100929.70
2018-01-15T04:17:06.142Z,100921.90
2018-01-15T04:19:33.557Z,100920.98
2018-01-15T04:22:01.020Z,100920.20
2018-01-15T04:24:28.500Z,100921.07
2018-01-15T04:26:55.889Z,100912.38
2018-01-15T04:29:24.117Z,100908.41
2018-01-15T04:31:51.511Z,100903.75
2018-01-15T04:34:18.935Z,100895.09
2018-01-15T04:36:46.358Z,100890.32
2018-01-15T04:39:13.766Z,100882.95
2018-01-15T04:41:41.168Z,100880.79
2018-01-15T04:44:08.566Z,100878.63
2018-01-15T04:46:35.971Z,100878.54
2018-01-15T04:49:03.441Z,100881.91
2018-01-15T04:51:30.842Z,100871.61
2018-01-15T04:53:58.462Z,100870.75
2018-01-15T04:56:25.895Z,100861.66
2018-01-15T04:58:53.293Z,100852.99
2018-01-15T05:01:20.677Z,100852.05
2018-01-15T05:03:48.081Z,100847.28
2018-01-15T05:06:15.504Z,100844.14
2018-01-15T05:08:42.899Z,100844.38
2018-01-15T05:11:10.318Z,100838.70
2018-01-15T05:13:37.726Z,100829.19
2018-01-15T05:16:05.144Z,100831.38
2018-01-15T05:18:32.531Z,100824.78
2018-01-15T05:20:59.939Z,100818.84
2018-01-15T05:23:27.357Z,100821.06
2018-01-15T05:25:54.753Z,100817.48
2018-01-15T05:28:22.151Z,100817.13
2018-01-15T05:30:49.561Z,100803.27
2018-01-15T05:33:16.966Z,100796.36
2018-01-15T05:35:44.386Z,100796.27
2018-01-15T05:38:11.783Z,100791.90
2018-01-15T05:40:39.202Z,100791.53
2018-01-15T05:43:06.590Z,100786.92
2018-01-15T05:45:34.026Z,100780.00
2018-01-15T05:48:01.450Z,100775.72
2018-01-15T05:50:28.861Z,100768.36
2018-01-15T05:52:56.261Z,100761.41
2018-01-15T05:55:23.729Z,100768.75
2018-01-15T05:57:51.280Z,100763.11
2018-01-15T06:00:18.700Z,100755.59
2018-01-15T06:02:46.114Z,100752.11
2018-01-15T06:05:13.531Z,100748.21
2018-01-15T06:07:40.938Z,100747.95
2018-01-15T06:10:08.342Z,100749.60
2018-01-15T06:12:35.744Z,100737.80
2018-01-15T06:15:03.147Z,100740.08
2018-01-15T06:17:30.562Z,100726.56
2018-01-15T06:19:57.950Z,100736.91
2018-01-15T06:22:25.371Z,100725.39
2018-01-15T06:24:52.932Z,100723.17
2018-01-15T06:27:20.279Z,100712.40
2018-01-15T06:29:47.694Z,100718.03
2018-01-15T06:32:15.090Z,100708.00
2018-01-15T06:34:42.491Z,100711.44
2018-01-15T06:37:09.907Z,100701.48
2018-01-15T06:39:37.304Z,100702.20
2018-01-15T06:42:04.693Z,100694.30
2018-01-15T06:44:32.098Z,100687.58
2018-01-15T06:46:59.782Z,100685.06
2018-01-15T06:49:27.193Z,100678.82
2018-01-15T06:51:54.610Z,100664.72
2018-01-15T06:54:22.034Z,100662.12
2018-01-15T06:56:49.454Z,100656.01
2018-01-15T06:59:16.846Z,100655.61
2018-01-15T07:01:44.246Z,100645.91
2018-01-15T07:04:11.647Z,100642.42
2018-01-15T07:06:39.061Z,100648.55
2018-01-15T07:09:06.434Z,100640.25
2018-01-15T07:11:33.834Z,100630.47
2018-01-15T07:14:01.235Z,100625.28
2018-01-15T07:16:28.636Z,100621.32
2018-01-15T07:18:56.030Z,100621.19
2018-01-15T07:21:23.434Z,100614.77
2018-01-15T07:23:50.830Z,100606.00
2018-01-15T07:26:18.255Z,100599.55
2018-01-15T07:28:45.638Z,100608.15
2018-01-15T07:31:13.057Z,100610.70
2018-01-15T07:33:40.485Z,100605.75
2018-01-15T07:36:07.867Z,100600.86
2018-01-15T07:38:35.275Z,100610.78
2018-01-15T07:41:02.696Z,100601.48
2018-01-15T07:43:30.083Z,100597.30
2018-01-15T07:45:57.479Z,100598.48
2018-01-15T07:48:24.875Z,100591.89
2018-01-15T07:50:52.274Z,100586.69
2018-01-15T07:53:19.670Z,100577.91
2018-01-15T07:55:47.062Z,100578.73
2018-01-15T07:58:14.453Z,100570.23
2018-01-15T08:00:41.859Z,100567.95
2018-01-15T08:03:09.277Z,100569.55
2018-01-15T08:05:37.178Z,100567.42
2018-01-15T08:08:04.571Z,100555.78
2018-01-15T08:10:31.991Z,100549.19
2018-01-15T08:12:59.383Z,100548.58
2018-01-15T08:15:26.787Z,100544.66
2018-01-15T08:17:54.166Z,100538.47
2018-01-15T08:20:21.562Z,100542.79
2018-01-15T08:22:48.969Z,100534.45
2018-01-15T08:25:16.378Z,100532.22
2018-01-15T08:27:43.778Z,100519.63
2018-01-15T08:30:11.198Z,100516.81
2018-01-15T08:32:38.596Z,100503.88
2018-01-15T08:35:05.987Z,100501.47
2018-01-15T08:37:33.383Z,100495.02
2018-01-15T08:40:00.803Z,100492.73
2018-01-15T08:42:28.178Z,100496.09
2018-01-15T08:44:56.367Z,100500.45
2018-01-15T08:47:23.756Z,100504.97
2018-01-15T08:49:51.172Z,100500.52
2018-01-15T08:52:18.566Z,100490.46
2018-01-15T08:54:45.953Z,100492.20
2018-01-15T08:57:13.354Z,100486.47
2018-01-15T08:59:40.756Z,100481.84
2018-01-15T09:02:08.166Z,100471.59
2018-01-15T09:04:35.570Z,100469.25
2018-01-15T09:07:02.966Z,100464.20
2018-01-15T09:09:30.503Z,100450.28
2018-01-15T09:11:57.910Z,100441.41
2018-01-15T09:14:25.308Z,100443.45
2018-01-15T09:16:52.731Z,100435.14
2018-01-15T09:19:20.126Z,100431.09
2018-01-15T09:21:47.526Z,100433.17
2018-01-15T09:24:14.932Z,100428.77
2018-01-15T09:26:42.333Z,100427.74
2018-01-15T09:29:09.732Z,100421.78
2018-01-15T09:31:37.130Z,100407.33
2018-01-15T09:34:04.562Z,100404.76
2018-01-15T09:36:31.966Z,100403.11
2018-01-15T09:38:59.378Z,100401.20
2018-01-15T09:41:26.810Z,100397.70
2018-01-15T09:43:54.235Z,100391.16
2018-01-15T09:46:21.654Z,100380.85
2018-01-15T09:48:49.060Z,100379.55
2018-01-15T09:51:16.458Z,100379.34
2018-01-15T09:53:43.847Z,100369.64
2018-01-15T09:56:11.261Z,100373.33
2018-01-15T09:58:38.653Z,100357.15
2018-01-15T10:01:06.150Z,100358.31
2018-01-15T10:03:33.548Z,100353.31
2018-01-15T10:06:00.953Z,100355.56
2018-01-15T10:08:28.346Z,100347.25
2018-01-15T10:10:55.755Z,100337.86
2018-01-15T10:13:23.178Z,100335.29
2018-01-15T10:15:50.610Z,100333.13
2018-01-15T10:18:17.990Z,100321.59
2018-01-15T10:20:45.513Z,100327.45
2018-01-15T10:23:18.821Z,100321.27
2018-01-15T10:25:46.225Z,100315.03
2018-01-15T10:28:13.632Z,100303.92
2018-01-15T10:30:41.062Z,100294.61
2018-01-15T10:33:08.457Z,100294.39
2018-01-15T10:35:35.853Z,100285.79
2018-01-15T10:38:03.249Z,100273.95
2018-01-15T10:40:30.653Z,100276.84
2018-01-15T10:42:58.030Z,100259.77
2018-01-15T10:45:25.459Z,100255.42
2018-01-15T10:47:52.872Z,100244.09
2018-01-15T10:50:20.266Z,100235.98
2018-01-15T10:52:47.670Z,100228.90
2018-01-15T10:55:15.121Z,100217.22
2018-01-15T10:57:42.488Z,100218.91
2018-01-15T11:00:09.895Z,100206.80
2018-01-15T11:02:37.289Z,100208.48
2018-01-15T11:05:04.703Z,100201.09
2018-01-15T11:07:32.109Z,100191.34
2018-01-15T11:09:59.505Z,100189.66
2018-01-15T11:12:26.902Z,100181.98
2018-01-15T11:14:54.298Z,100175.44
2018-01-15T11:17:21.703Z,100169.72
2018-01-15T11:19:49.119Z,100166.33
2018-01-15T11:22:16.539Z,100161.09
2018-01-15T11:24:43.947Z,100153.72
2018-01-15T11:27:11.342Z,100154.11
2018-01-15T11:29:38.738Z,100144.67
2018-01-15T11:32:06.164Z,100133.53
2018-01-15T11:34:33.547Z,100127.82
2018-01-15T11:37:01.073Z,100111.36
2018-01-15T11:39:28.479Z,100106.84
2018-01-15T11:41:55.873Z,100095.30
2018-01-15T11:44:23.284Z,100090.95
2018-01-15T11:46:50.675Z,100078.46
2018-01-15T11:49:18.082Z,100077.95
2018-01-15T11:51:45.494Z,100073.00
2018-01-15T11:54:12.902Z,100065.92
2018-01-15T11:56:40.296Z,100052.92
2018-01-15T11:59:07.698Z,100043.69
2018-01-15T12:01:35.122Z,100035.15
2018-01-15T12:04:02.517Z,100020.11
2018-01-15T12:06:29.938Z,100020.11
2018-01-15T12:08:57.345Z,100011.01
2018-01-15T12:11:24.737Z,100010.95
2018-01-15T12:13:52.154Z,99997.83
2018-01-15T12:16:19.576Z,99993.01
2018-01-15T12:18:46.956Z,99979.02
2018-01-15T12:21:14.342Z,99984.64
2018-01-15T12:23:41.737Z,99969.92
2018-01-15T12:26:09.171Z,99968.70
2018-01-15T12:28:36.562Z,99965.16
2018-01-15T12:31:03.954Z,99951.03
2018-01-15T12:33:31.406Z,99944.30
2018-01-15T12:35:58.790Z,99940.78
2018-01-15T12:38:26.192Z,99930.66
2018-01-15T12:40:53.603Z,99929.16
2018-01-15T12:43:21.016Z,99918.64
2018-01-15T12:45:48.417Z,99906.11
2018-01-15T12:48:15.803Z,99902.92
2018-01-15T12:50:43.194Z,99901.20
2018-01-15T12:53:10.622Z,99903.27
2018-01-15T12:55:37.995Z,99895.31
2018-01-15T12:58:05.418Z,99889.79
2018-01-15T13:00:32.842Z,99890.61
2018-01-15T13:03:00.242Z,99884.30
2018-01-15T13:05:39.652Z,99879.06
2018-01-15T13:08:11.683Z,99874.35
2018-01-15T13:10:39.070Z,99862.39
2018-01-15T13:13:06.469Z,99868.27
2018-01-15T13:15:34.286Z,99846.98
2018-01-15T13:18:01.679Z,99843.88
2018-01-15T13:20:29.067Z,99832.58
2018-01-15T13:22:56.478Z,99830.85
2018-01-15T13:25:23.885Z,99829.06
2018-01-15T13:27:51.312Z,99818.52
2018-01-15T13:30:18.689Z,99806.31
2018-01-15T13:32:46.119Z,99799.10
2018-01-15T13:35:13.565Z,99790.27
2018-01-15T13:37:41.005Z,99787.85
2018-01-15T13:40:08.398Z,99784.45
2018-01-15T13:42:35.794Z,99770.70
2018-01-15T13:45:03.187Z,99763.64
2018-01-15T13:47:30.602Z,99753.41
2018-01-15T13:49:57.972Z,99735.75
2018-01-15T13:52:25.388Z,99720.51
2018-01-15T13:54:52.765Z,99716.56
2018-01-15T13:57:20.181Z,99706.70
2018-01-15T13:59:47.574Z,99707.00
2018-01-15T14:02:14.970Z,99686.72
2018-01-15T14:04:42.367Z,99677.78
2018-01-15T14:07:09.770Z,99668.79
2018-01-15T14:09:37.183Z,99661.47
2018-01-15T14:12:04.570Z,99652.30
2018-01-15T14:14:31.996Z,99647.07
2018-01-15T14:16:59.414Z,99657.22
2018-01-15T14:19:26.882Z,99635.67
2018-01-15T14:21:54.309Z,99632.45
2018-01-15T14:24:21.718Z,99625.95
2018-01-15T14:26:49.126Z,99619.79
2018-01-15T14:29:16.535Z,99611.27
2018-01-15T14:31:43.924Z,99607.61
2018-01-15T14:34:11.352Z,99596.98
2018-01-15T14:36:38.714Z,99589.11
2018-01-15T14:39:06.221Z,99586.22
2018-01-15T14:41:33.500Z,99580.39
2018-01-15T14:44:00.962Z,99566.58
2018-01-15T14:46:28.291Z,99555.32
2018-01-15T14:48:55.691Z,99563.23
2018-01-15T14:51:23.095Z,99556.58
2018-01-15T14:53:50.490Z,99546.77
2018-01-15T14:56:18.027Z,99539.53
2018-01-15T14:58:45.412Z,99530.84
2018-01-15T15:01:12.802Z,99541.31
2018-01-15T15:03:40.218Z,99532.39
2018-01-15T15:06:07.616Z,99541.02
2018-01-15T15:08:35.030Z,99532.49
2018-01-15T15:11:02.414Z,99529.77
2018-01-15T15:13:29.819Z,99527.44
2018-01-15T15:15:57.207Z,99517.14
2018-01-15T15:18:24.623Z,99502.28
2018-01-15T15:20:52.034Z,99507.14
2018-01-15T15:23:19.434Z,99496.45
2018-01-15T15:25:46.826Z,99494.58
2018-01-15T15:28:14.336Z,99492.77
2018-01-15T15:30:41.750Z,99477.67
2018-01-15T15:33:09.169Z,99474.81
2018-01-15T15:35:36.566Z,99480.47
2018-01-15T15:38:03.970Z,99467.25
2018-01-15T15:40:31.395Z,99451.72
2018-01-15T15:42:58.785Z,99458.32
2018-01-15T15:45:26.179Z,99451.91
2018-01-15T15:47:53.600Z,99440.05
2018-01-15T15:50:20.993Z,99433.58
2018-01-15T15:52:48.539Z,99436.47
2018-01-15T15:55:15.983Z,99421.36
2018-01-15T15:57:43.394Z,99422.59
2018-01-15T16:00:10.800Z,99419.81
2018-01-15T16:02:38.189Z,99416.13
2018-01-15T16:05:05.597Z,99412.77
2018-01-15T16:07:33.066Z,99402.07
2018-01-15T16:10:00.520Z,99396.58
2018-01-15T16:15:01.885Z,99397.31
2018-01-15T16:17:29.274Z,99388.77
2018-01-15T16:19:56.687Z,99391.49
2018-01-15T16:22:31.646Z,99389.10
2018-01-15T16:24:59.033Z,99373.63
2018-01-15T16:27:26.419Z,99361.95
2018-01-15T16:29:53.842Z,99352.33
2018-01-15T16:32:21.214Z,99332.22
2018-01-15T16:34:48.634Z,99329.84
2018-01-15T16:37:16.029Z,99318.44
2018-01-15T16:39:43.423Z,99313.56
2018-01-15T16:42:10.815Z,99315.31
2018-01-15T16:44:38.222Z,99305.06
2018-01-15T16:47:05.612Z,99311.19
2018-01-15T16:49:33.009Z,99291.77
2018-01-15T16:52:00.390Z,99285.96
2018-01-15T16:54:27.799Z,99276.78
2018-01-15T16:56:55.235Z,99263.33
2018-01-15T16:59:22.642Z,99255.20
2018-01-15T17:01:50.067Z,99247.35
2018-01-15T17:04:17.453Z,99244.17
2018-01-15T17:06:44.961Z,99233.88
2018-01-15T17:09:12.333Z,99224.55
2018-01-15T17:11:39.781Z,99209.06
2018-01-15T17:14:07.182Z,99204.19
2018-01-15T17:16:35.570Z,99192.61
2018-01-15T17:19:02.966Z,99187.38
2018-01-15T17:21:30.356Z,99167.69
2018-01-15T17:23:57.760Z,99153.73
2018-01-15T17:26:25.146Z,99144.80
2018-01-15T17:28:52.558Z,99126.80
2018-01-15T17:31:19.963Z,99127.63
2018-01-15T17:33:47.429Z,99110.08
2018-01-15T17:36:14.809Z,99107.38
2018-01-15T17:38:42.202Z,99101.87
2018-01-15T17:41:09.598Z,99093.36
2018-01-15T17:43:36.982Z,99090.67
2018-01-15T17:46:04.418Z,99086.94
2018-01-15T17:48:31.834Z,99070.42
2018-01-15T17:50:59.248Z,99056.86
2018-01-15T17:53:26.640Z,99048.97
2018-01-15T17:55:54.043Z,99043.64
2018-01-15T17:58:21.458Z,99029.70
2018-01-15T18:00:48.853Z,99023.07
2018-01-15T18:03:16.252Z,99010.67
2018-01-15T18:05:43.642Z,99012.19
2018-01-15T18:08:11.035Z,99005.23
2018-01-15T18:10:38.428Z,98991.79
2018-01-15T18:13:05.850Z,98985.25
2018-01-15T18:15:33.244Z,98983.82
2018-01-15T18:18:00.854Z,98973.02
2018-01-15T18:20:28.243Z,98963.30
2018-01-15T18:22:55.627Z,98960.54
2018-01-15T18:25:23.026Z,98943.77
2018-01-15T18:27:50.411Z,98934.16
2018-01-15T18:30:17.811Z,98938.16
2018-01-15T18:32:45.222Z,98926.13
2018-01-15T18:35:12.639Z,98925.06
2018-01-15T18:37:40.046Z,98918.23
2018-01-15T18:40:07.442Z,98903.40
2018-01-15T18:42:34.826Z,98887.39
2018-01-15T18:45:02.228Z,98888.00
2018-01-15T18:47:29.623Z,98879.91
2018-01-15T18:49:57.027Z,98879.38
2018-01-15T18:52:24.424Z,98871.67
2018-01-15T18:54:51.854Z,98866.39
2018-01-15T18:57:19.228Z,98854.13
2018-01-15T18:59:46.626Z,98848.55
2018-01-15T19:02:14.019Z,98846.91
2018-01-15T19:04:41.427Z,98829.45
2018-01-15T19:07:08.809Z,98837.43
2018-01-15T19:09:36.197Z,98828.58
2018-01-15T19:12:03.585Z,98818.70
2018-01-15T19:14:31.019Z,98812.16
2018-01-15T19:16:58.487Z,98806.50
2018-01-15T19:19:25.882Z,98805.80
2018-01-15T19:21:53.267Z,98795.93
2018-01-15T19:24:20.685Z,98781.05
2018-01-15T19:26:48.084Z,98779.25
2018-01-15T19:29:15.474Z,98771.21
2018-01-15T19:31:42.854Z,98764.53
2018-01-15T19:34:10.258Z,98752.24
2018-01-15T19:36:55.477Z,98744.39
2018-01-15T19:39:22.874Z,98729.86
2018-01-15T19:41:50.271Z,98722.87
2018-01-15T19:44:17.660Z,98709.11
2018-01-15T19:46:50.779Z,98693.94
2018-01-15T19:49:23.682Z,98674.14
2018-01-15T19:51:56.766Z,98676.03
2018-01-15T19:54:29.826Z,98663.09
2018-01-15T19:57:02.926Z,98655.19
2018-01-15T19:59:35.989Z,98636.92
2018-01-15T20:02:08.906Z,98642.39
2018-01-15T20:04:41.975Z,98638.89
2018-01-15T20:07:14.998Z,98623.00
2018-01-15T20:09:48.091Z,98622.30
2018-01-15T20:12:15.471Z,98627.20
2018-01-15T20:14:42.885Z,98612.80
2018-01-15T20:17:10.269Z,98613.53
2018-01-15T20:19:37.645Z,98601.06
2018-01-15T20:22:05.036Z,98592.14
2018-01-15T20:24:32.414Z,98574.88
2018-01-15T20:26:59.810Z,98577.48
2018-01-15T20:29:27.199Z,98560.06
2018-01-15T20:31:54.602Z,98557.65
2018-01-15T20:34:21.991Z,98549.18
2018-01-15T20:36:49.414Z,98553.36
2018-01-15T20:39:16.793Z,98538.97
2018-01-15T20:41:44.191Z,98532.37
2018-01-15T20:44:11.583Z,98536.45
2018-01-15T20:46:39.102Z,98525.42
2018-01-15T20:49:07.315Z,98514.68
2018-01-15T20:51:34.709Z,98514.75
2018-01-15T20:54:02.089Z,98508.72
2018-01-15T20:56:29.478Z,98487.76
2018-01-15T20:58:56.867Z,98484.27
2018-01-15T21:01:24.258Z,98474.70
2018-01-15T21:03:51.649Z,98467.06
2018-01-15T21:06:19.071Z,98463.41
2018-01-15T21:08:46.459Z,98457.12
2018-01-15T21:11:13.879Z,98459.24
2018-01-15T21:13:41.248Z,98449.36
2018-01-15T21:16:08.664Z,98445.43
2018-01-15T21:18:36.041Z,98454.72
2018-01-15T21:21:03.474Z,98450.01
2018-01-15T21:23:30.867Z,98441.23
2018-01-15T21:25:58.261Z,98422.49
2018-01-15T21:28:25.642Z,98410.72
2018-01-15T21:30:53.039Z,98405.94
2018-01-15T21:33:20.466Z,98403.77
2018-01-15T21:35:47.823Z,98396.32
2018-01-15T21:38:15.232Z,98402.73
2018-01-15T21:40:42.624Z,98389.72
2018-01-15T21:43:10.031Z,98389.58
2018-01-15T21:45:37.440Z,98386.86
2018-01-15T21:48:04.826Z,98376.11
2018-01-15T21:50:32.318Z,98365.85
2018-01-15T21:52:59.707Z,98370.94
2018-01-15T21:55:27.114Z,98367.25
2018-01-15T21:57:54.500Z,98355.09
2018-01-15T22:00:21.877Z,98356.36
2018-01-15T22:02:49.286Z,98343.39
2018-01-15T22:05:16.673Z,98340.84
2018-01-15T22:07:44.063Z,98332.37
2018-01-15T22:10:11.449Z,98337.02
2018-01-15T22:12:38.851Z,98331.92
2018-01-15T22:15:06.239Z,98323.44
2018-01-15T22:17:33.664Z,98312.97
2018-01-15T22:20:01.022Z,98325.67
2018-01-15T22:22:28.429Z,98323.22
2018-01-15T22:24:55.825Z,98322.33
2018-01-15T22:27:23.219Z,98308.28
2018-01-15T22:29:50.603Z,98308.56
2018-01-15T22:32:17.986Z,98314.69
2018-01-15T22:34:45.370Z,98308.19
2018-01-15T22:37:12.838Z,98314.64
2018-01-15T22:39:40.221Z,98301.60
2018-01-15T22:42:07.604Z,98301.22
2018-01-15T22:44:34.978Z,98292.06
2018-01-15T22:47:02.374Z,98300.63
2018-01-15T22:49:29.910Z,98294.39
2018-01-15T22:51:57.535Z,98297.84
2018-01-15T22:54:25.073Z,98285.25
2018-01-15T22:56:52.455Z,98293.69
2018-01-15T22:59:20.830Z,98293.91
2018-01-15T23:01:48.214Z,98296.13
2018-01-15T23:04:15.604Z,98283.72
2018-01-15T23:06:42.991Z,98287.13
2018-01-15T23:09:10.395Z,98279.97
2018-01-15T23:11:37.783Z,98276.76
2018-01-15T23:14:05.215Z,98275.79
2018-01-15T23:16:32.590Z,98285.03
2018-01-15T23:19:00.007Z,98279.98
2018-01-15T23:21:27.410Z,98274.52
2018-01-15T23:23:54.857Z,98259.55
2018-01-15T23:26:22.267Z,98275.23
2018-01-15T23:28:49.651Z,98263.16
2018-01-15T23:31:17.087Z,98259.16
2018-01-15T23:33:44.466Z,98261.23
2018-01-15T23:36:11.923Z,98255.30
2018-01-15T23:38:39.309Z,98253.48
2018-01-15T23:41:06.692Z,98259.30
2018-01-15T23:43:34.102Z,98245.30
2018-01-15T23:46:01.483Z,98248.43
2018-01-15T23:48:28.895Z,98241.70
2018-01-15T23:50:56.260Z,98240.36
2018-01-15T23:53:23.646Z,98234.34
2018-01-15T23:55:51.021Z,98235.23
2018-01-15T23:58:18.426Z,98226.85
